Lafleche, Canada
Current Conditions -  °F | °C
As of 12:12 AM on Sunday 23 Nov 2014 (Local Time) from CYYN Reporting Station
Light Snow Light Snow  
Wind Chill:   Ceiling: 1000
Heat Index: 19°   Visibility: 4mi
Dew Point: 18°   Wind: 25mph
Humidity: 93%   Direction: 320°NW
Pressure: 29.37"   Gusts: 35mph
Location:  49.7°N, 106.57°W
Report Text: CYYN 230612Z AUTO 32022G30KT 4SM -SN BKN010 OVC015 M07/M08 A2937 RMK PRESRR SLP977
Loading
Personal Weather Stations






























Interactive Weather Map New forecast layout! Learn more

10-Day Weather Forecast

Advertisements
Track Severe Weather on mobile